sensor_id;sensor_type;location;lat;lon;timestamp;P1;durP1;ratioP1;P2;durP2;ratioP2
52946;SDS011;68773;40.400;17.260;2023-06-14T03:27:01;9.20;;;5.97;;
52946;SDS011;68773;40.400;17.260;2023-06-14T03:29:27;12.02;;;6.15;;
52946;SDS011;68773;40.400;17.260;2023-06-14T03:32:00;7.40;;;5.55;;
52946;SDS011;68773;40.400;17.260;2023-06-14T03:34:26;11.85;;;6.20;;
52946;SDS011;68773;40.400;17.260;2023-06-14T03:36:52;13.13;;;5.88;;
52946;SDS011;68773;40.400;17.260;2023-06-14T03:39:19;14.82;;;6.07;;
52946;SDS011;68773;40.400;17.260;2023-06-14T03:41:45;12.45;;;6.57;;
52946;SDS011;68773;40.400;17.260;2023-06-14T03:44:11;11.65;;;5.78;;
52946;SDS011;68773;40.400;17.260;2023-06-14T03:46:37;10.05;;;5.55;;
52946;SDS011;68773;40.400;17.260;2023-06-14T03:49:03;12.23;;;6.72;;
52946;SDS011;68773;40.400;17.260;2023-06-14T03:51:29;11.60;;;6.85;;
52946;SDS011;68773;40.400;17.260;2023-06-14T03:53:56;12.30;;;6.90;;
52946;SDS011;68773;40.400;17.260;2023-06-14T03:56:22;10.00;;;6.47;;
52946;SDS011;68773;40.400;17.260;2023-06-14T03:58:48;8.77;;;6.07;;
52946;SDS011;68773;40.400;17.260;2023-06-14T04:01:14;11.57;;;5.95;;
52946;SDS011;68773;40.400;17.260;2023-06-14T04:03:40;12.27;;;5.80;;
52946;SDS011;68773;40.400;17.260;2023-06-14T04:06:06;10.48;;;5.68;;
52946;SDS011;68773;40.400;17.260;2023-06-14T04:08:32;8.82;;;5.00;;
52946;SDS011;68773;40.400;17.260;2023-06-14T04:10:59;8.13;;;5.68;;
52946;SDS011;68773;40.400;17.260;2023-06-14T04:13:26;9.27;;;5.45;;
52946;SDS011;68773;40.400;17.260;2023-06-14T04:15:52;8.57;;;5.53;;
52946;SDS011;68773;40.400;17.260;2023-06-14T04:18:18;8.32;;;5.03;;
52946;SDS011;68773;40.400;17.260;2023-06-14T04:20:45;8.73;;;5.45;;
52946;SDS011;68773;40.400;17.260;2023-06-14T04:23:12;9.13;;;4.85;;
52946;SDS011;68773;40.400;17.260;2023-06-14T04:25:39;11.40;;;5.20;;
52946;SDS011;68773;40.400;17.260;2023-06-14T04:28:05;8.15;;;4.78;;
52946;SDS011;68773;40.400;17.260;2023-06-14T04:30:36;14.23;;;5.60;;
52946;SDS011;68773;40.400;17.260;2023-06-14T04:33:05;9.27;;;5.03;;
52946;SDS011;68773;40.400;17.260;2023-06-14T04:35:32;12.35;;;5.40;;
52946;SDS011;68773;40.400;17.260;2023-06-14T04:38:00;13.60;;;7.70;;
52946;SDS011;68773;40.400;17.260;2023-06-14T04:40:27;9.77;;;5.85;;
52946;SDS011;68773;40.400;17.260;2023-06-14T04:42:53;17.17;;;7.00;;
52946;SDS011;68773;40.400;17.260;2023-06-14T04:45:19;15.13;;;6.03;;
52946;SDS011;68773;40.400;17.260;2023-06-14T04:47:47;12.18;;;5.75;;
52946;SDS011;68773;40.400;17.260;2023-06-14T04:50:13;9.27;;;6.05;;
52946;SDS011;68773;40.400;17.260;2023-06-14T04:52:39;9.60;;;5.43;;
52946;SDS011;68773;40.400;17.260;2023-06-14T04:55:07;10.25;;;5.93;;
52946;SDS011;68773;40.400;17.260;2023-06-14T04:57:33;11.68;;;6.05;;
52946;SDS011;68773;40.400;17.260;2023-06-14T05:00:00;8.80;;;5.35;;
52946;SDS011;68773;40.400;17.260;2023-06-14T05:02:29;10.77;;;5.47;;
52946;SDS011;68773;40.400;17.260;2023-06-14T05:04:55;6.90;;;4.70;;
52946;SDS011;68773;40.400;17.260;2023-06-14T05:07:22;6.78;;;4.50;;
52946;SDS011;68773;40.400;17.260;2023-06-14T05:09:49;8.52;;;5.07;;
52946;SDS011;68773;40.400;17.260;2023-06-14T05:12:15;9.93;;;5.90;;
52946;SDS011;68773;40.400;17.260;2023-06-14T05:14:44;10.00;;;4.93;;
52946;SDS011;68773;40.400;17.260;2023-06-14T05:17:10;10.05;;;4.70;;
52946;SDS011;68773;40.400;17.260;2023-06-14T05:19:36;10.00;;;4.78;;
52946;SDS011;68773;40.400;17.260;2023-06-14T05:22:02;10.05;;;4.35;;
52946;SDS011;68773;40.400;17.260;2023-06-14T05:24:28;7.18;;;4.40;;
52946;SDS011;68773;40.400;17.260;2023-06-14T05:26:55;8.20;;;5.03;;
52946;SDS011;68773;40.400;17.260;2023-06-14T05:29:22;8.85;;;4.45;;
52946;SDS011;68773;40.400;17.260;2023-06-14T05:31:48;5.95;;;4.47;;
52946;SDS011;68773;40.400;17.260;2023-06-14T05:34:14;9.40;;;4.93;;
52946;SDS011;68773;40.400;17.260;2023-06-14T05:36:40;7.65;;;4.78;;
52946;SDS011;68773;40.400;17.260;2023-06-14T05:39:06;6.47;;;3.55;;
52946;SDS011;68773;40.400;17.260;2023-06-14T05:41:33;8.15;;;4.20;;
52946;SDS011;68773;40.400;17.260;2023-06-14T05:43:59;11.00;;;5.40;;
52946;SDS011;68773;40.400;17.260;2023-06-14T05:46:25;7.88;;;5.03;;
52946;SDS011;68773;40.400;17.260;2023-06-14T05:48:52;7.63;;;4.60;;
52946;SDS011;68773;40.400;17.260;2023-06-14T05:51:18;9.05;;;4.43;;
52946;SDS011;68773;40.400;17.260;2023-06-14T05:53:53;7.97;;;4.70;;
52946;SDS011;68773;40.400;17.260;2023-06-14T05:56:19;7.47;;;4.22;;
52946;SDS011;68773;40.400;17.260;2023-06-14T05:58:46;9.27;;;4.55;;
52946;SDS011;68773;40.400;17.260;2023-06-14T06:01:13;8.40;;;4.30;;
52946;SDS011;68773;40.400;17.260;2023-06-14T06:03:39;13.27;;;5.80;;
52946;SDS011;68773;40.400;17.260;2023-06-14T06:06:06;8.02;;;4.97;;
52946;SDS011;68773;40.400;17.260;2023-06-14T06:08:33;7.55;;;5.07;;
52946;SDS011;68773;40.400;17.260;2023-06-14T06:11:00;14.50;;;5.43;;
52946;SDS011;68773;40.400;17.260;2023-06-14T06:13:26;7.50;;;4.57;;
52946;SDS011;68773;40.400;17.260;2023-06-14T06:15:52;7.20;;;4.15;;
52946;SDS011;68773;40.400;17.260;2023-06-14T06:18:18;9.80;;;4.82;;
52946;SDS011;68773;40.400;17.260;2023-06-14T06:20:45;7.65;;;4.43;;
52946;SDS011;68773;40.400;17.260;2023-06-14T06:23:12;5.82;;;4.38;;
52946;SDS011;68773;40.400;17.260;2023-06-14T06:25:38;8.43;;;4.95;;
52946;SDS011;68773;40.400;17.260;2023-06-14T06:28:04;7.53;;;4.88;;
52946;SDS011;68773;40.400;17.260;2023-06-14T06:30:31;9.60;;;5.07;;
52946;SDS011;68773;40.400;17.260;2023-06-14T06:32:57;7.25;;;4.95;;
52946;SDS011;68773;40.400;17.260;2023-06-14T06:35:23;11.27;;;5.05;;
52946;SDS011;68773;40.400;17.260;2023-06-14T06:37:49;8.25;;;4.60;;
52946;SDS011;68773;40.400;17.260;2023-06-14T06:40:15;8.70;;;4.43;;
52946;SDS011;68773;40.400;17.260;2023-06-14T06:42:41;6.75;;;5.15;;
52946;SDS011;68773;40.400;17.260;2023-06-14T06:45:08;7.85;;;4.90;;
52946;SDS011;68773;40.400;17.260;2023-06-14T06:47:34;8.95;;;4.95;;
52946;SDS011;68773;40.400;17.260;2023-06-14T06:50:00;8.20;;;4.85;;
52946;SDS011;68773;40.400;17.260;2023-06-14T06:52:26;8.60;;;5.07;;
52946;SDS011;68773;40.400;17.260;2023-06-14T06:54:54;8.52;;;4.82;;
52946;SDS011;68773;40.400;17.260;2023-06-14T06:57:21;12.00;;;5.75;;
52946;SDS011;68773;40.400;17.260;2023-06-14T06:59:49;8.35;;;4.90;;
52946;SDS011;68773;40.400;17.260;2023-06-14T07:02:15;8.50;;;5.30;;
52946;SDS011;68773;40.400;17.260;2023-06-14T07:04:41;6.68;;;4.88;;
52946;SDS011;68773;40.400;17.260;2023-06-14T07:07:07;7.82;;;5.78;;
52946;SDS011;68773;40.400;17.260;2023-06-14T07:09:34;19.92;;;5.90;;
52946;SDS011;68773;40.400;17.260;2023-06-14T07:12:01;9.98;;;5.38;;
52946;SDS011;68773;40.400;17.260;2023-06-14T07:14:27;7.47;;;5.00;;
52946;SDS011;68773;40.400;17.260;2023-06-14T07:16:55;12.45;;;5.40;;
52946;SDS011;68773;40.400;17.260;2023-06-14T07:19:21;9.40;;;4.72;;
52946;SDS011;68773;40.400;17.260;2023-06-14T07:21:47;16.45;;;5.65;;
52946;SDS011;68773;40.400;17.260;2023-06-14T07:24:13;8.65;;;5.72;;
52946;SDS011;68773;40.400;17.260;2023-06-14T07:26:40;6.20;;;5.22;;
52946;SDS011;68773;40.400;17.260;2023-06-14T07:29:06;13.68;;;5.25;;
52946;SDS011;68773;40.400;17.260;2023-06-14T07:31:32;9.55;;;4.82;;
52946;SDS011;68773;40.400;17.260;2023-06-14T07:33:58;10.25;;;4.70;;
52946;SDS011;68773;40.400;17.260;2023-06-14T07:36:24;8.70;;;5.10;;
52946;SDS011;68773;40.400;17.260;2023-06-14T07:38:50;5.78;;;4.68;;
52946;SDS011;68773;40.400;17.260;2023-06-14T07:41:16;7.75;;;4.70;;
52946;SDS011;68773;40.400;17.260;2023-06-14T07:43:42;8.48;;;5.07;;
52946;SDS011;68773;40.400;17.260;2023-06-14T07:46:08;6.72;;;4.80;;
52946;SDS011;68773;40.400;17.260;2023-06-14T07:48:34;9.77;;;4.57;;
52946;SDS011;68773;40.400;17.260;2023-06-14T07:51:01;7.10;;;4.90;;
52946;SDS011;68773;40.400;17.260;2023-06-14T07:53:27;7.85;;;5.10;;
52946;SDS011;68773;40.400;17.260;2023-06-14T07:55:53;11.65;;;5.15;;
52946;SDS011;68773;40.400;17.260;2023-06-14T07:58:19;8.93;;;4.97;;
52946;SDS011;68773;40.400;17.260;2023-06-14T08:00:45;12.15;;;5.68;;
52946;SDS011;68773;40.400;17.260;2023-06-14T08:03:12;12.77;;;5.40;;
52946;SDS011;68773;40.400;17.260;2023-06-14T08:05:39;8.05;;;4.93;;
52946;SDS011;68773;40.400;17.260;2023-06-14T08:08:05;11.85;;;5.32;;
52946;SDS011;68773;40.400;17.260;2023-06-14T08:10:31;6.82;;;4.85;;
52946;SDS011;68773;40.400;17.260;2023-06-14T08:12:57;8.70;;;4.55;;
52946;SDS011;68773;40.400;17.260;2023-06-14T08:15:23;9.10;;;4.93;;
52946;SDS011;68773;40.400;17.260;2023-06-14T08:17:50;16.85;;;5.75;;
52946;SDS011;68773;40.400;17.260;2023-06-14T08:20:16;9.25;;;4.57;;
52946;SDS011;68773;40.400;17.260;2023-06-14T08:22:42;7.35;;;4.07;;
52946;SDS011;68773;40.400;17.260;2023-06-14T08:25:08;7.30;;;3.67;;
52946;SDS011;68773;40.400;17.260;2023-06-14T08:27:37;6.43;;;3.72;;
52946;SDS011;68773;40.400;17.260;2023-06-14T08:30:03;8.73;;;4.10;;
52946;SDS011;68773;40.400;17.260;2023-06-14T08:32:29;5.75;;;3.38;;
52946;SDS011;68773;40.400;17.260;2023-06-14T08:34:55;7.90;;;3.60;;
52946;SDS011;68773;40.400;17.260;2023-06-14T08:37:21;10.82;;;3.80;;
52946;SDS011;68773;40.400;17.260;2023-06-14T08:39:47;5.18;;;3.20;;
52946;SDS011;68773;40.400;17.260;2023-06-14T08:42:14;8.32;;;3.88;;
52946;SDS011;68773;40.400;17.260;2023-06-14T08:44:40;6.45;;;4.13;;
52946;SDS011;68773;40.400;17.260;2023-06-14T08:47:07;7.40;;;4.05;;
52946;SDS011;68773;40.400;17.260;2023-06-14T08:49:34;7.15;;;4.05;;
52946;SDS011;68773;40.400;17.260;2023-06-14T08:52:01;8.63;;;4.55;;
52946;SDS011;68773;40.400;17.260;2023-06-14T08:54:29;7.05;;;4.18;;
52946;SDS011;68773;40.400;17.260;2023-06-14T08:56:59;7.15;;;4.28;;
52946;SDS011;68773;40.400;17.260;2023-06-14T08:59:25;7.78;;;4.30;;
52946;SDS011;68773;40.400;17.260;2023-06-14T09:01:52;8.05;;;4.03;;
52946;SDS011;68773;40.400;17.260;2023-06-14T09:04:19;7.07;;;4.60;;
52946;SDS011;68773;40.400;17.260;2023-06-14T09:06:46;10.63;;;4.82;;
52946;SDS011;68773;40.400;17.260;2023-06-14T09:09:18;7.00;;;4.65;;
52946;SDS011;68773;40.400;17.260;2023-06-14T09:11:44;8.73;;;4.95;;
52946;SDS011;68773;40.400;17.260;2023-06-14T09:14:10;9.95;;;5.38;;
52946;SDS011;68773;40.400;17.260;2023-06-14T09:16:36;11.40;;;5.85;;
52946;SDS011;68773;40.400;17.260;2023-06-14T09:19:02;13.98;;;5.78;;
52946;SDS011;68773;40.400;17.260;2023-06-14T09:21:28;12.77;;;5.10;;
52946;SDS011;68773;40.400;17.260;2023-06-14T09:23:59;10.07;;;5.93;;
52946;SDS011;68773;40.400;17.260;2023-06-14T09:26:25;7.82;;;5.70;;
52946;SDS011;68773;40.400;17.260;2023-06-14T09:28:52;10.52;;;6.13;;
52946;SDS011;68773;40.400;17.260;2023-06-14T09:31:20;10.90;;;5.97;;
52946;SDS011;68773;40.400;17.260;2023-06-14T09:33:50;10.27;;;6.07;;
52946;SDS011;68773;40.400;17.260;2023-06-14T09:38:46;10.38;;;5.85;;
52946;SDS011;68773;40.400;17.260;2023-06-14T09:41:17;9.90;;;6.22;;
52946;SDS011;68773;40.400;17.260;2023-06-14T09:43:43;10.70;;;5.30;;
52946;SDS011;68773;40.400;17.260;2023-06-14T09:46:10;8.48;;;5.15;;
52946;SDS011;68773;40.400;17.260;2023-06-14T09:48:36;9.30;;;5.93;;
52946;SDS011;68773;40.400;17.260;2023-06-14T09:51:07;11.85;;;5.82;;
52946;SDS011;68773;40.400;17.260;2023-06-14T09:53:34;10.77;;;6.60;;
52946;SDS011;68773;40.400;17.260;2023-06-14T09:56:01;19.30;;;6.00;;
52946;SDS011;68773;40.400;17.260;2023-06-14T09:58:28;11.10;;;5.85;;
52946;SDS011;68773;40.400;17.260;2023-06-14T10:00:55;10.50;;;5.93;;
52946;SDS011;68773;40.400;17.260;2023-06-14T10:03:24;11.40;;;6.60;;
52946;SDS011;68773;40.400;17.260;2023-06-14T10:05:51;8.88;;;5.57;;
52946;SDS011;68773;40.400;17.260;2023-06-14T10:08:22;9.52;;;6.18;;
52946;SDS011;68773;40.400;17.260;2023-06-14T10:10:50;10.48;;;6.20;;
52946;SDS011;68773;40.400;17.260;2023-06-14T10:13:17;12.18;;;6.10;;
52946;SDS011;68773;40.400;17.260;2023-06-14T10:21:07;9.85;;;6.05;;
52946;SDS011;68773;40.400;17.260;2023-06-14T10:23:40;14.27;;;5.30;;
52946;SDS011;68773;40.400;17.260;2023-06-14T10:26:07;10.55;;;5.82;;
52946;SDS011;68773;40.400;17.260;2023-06-14T10:28:36;10.15;;;6.18;;
52946;SDS011;68773;40.400;17.260;2023-06-14T10:33:29;11.77;;;6.10;;
52946;SDS011;68773;40.400;17.260;2023-06-14T10:36:08;10.75;;;5.72;;
52946;SDS011;68773;40.400;17.260;2023-06-14T10:38:34;13.52;;;5.82;;
52946;SDS011;68773;40.400;17.260;2023-06-14T10:41:02;9.00;;;5.10;;
52946;SDS011;68773;40.400;17.260;2023-06-14T10:43:28;11.70;;;5.22;;
52946;SDS011;68773;40.400;17.260;2023-06-14T10:48:40;8.18;;;4.50;;
52946;SDS011;68773;40.400;17.260;2023-06-14T10:51:13;7.40;;;4.45;;
52946;SDS011;68773;40.400;17.260;2023-06-14T10:53:41;9.10;;;4.85;;
52946;SDS011;68773;40.400;17.260;2023-06-14T10:56:08;9.15;;;4.72;;
52946;SDS011;68773;40.400;17.260;2023-06-14T10:58:36;10.88;;;4.47;;
52946;SDS011;68773;40.400;17.260;2023-06-14T11:01:02;9.43;;;5.20;;
52946;SDS011;68773;40.400;17.260;2023-06-14T11:03:36;7.97;;;4.97;;
52946;SDS011;68773;40.400;17.260;2023-06-14T11:06:14;10.07;;;4.30;;
52946;SDS011;68773;40.400;17.260;2023-06-14T11:11:13;15.38;;;4.68;;
52946;SDS011;68773;40.400;17.260;2023-06-14T11:13:41;7.28;;;4.05;;
52946;SDS011;68773;40.400;17.260;2023-06-14T11:16:14;7.65;;;4.25;;
52946;SDS011;68773;40.400;17.260;2023-06-14T11:18:40;10.23;;;4.68;;
52946;SDS011;68773;40.400;17.260;2023-06-14T11:21:07;9.55;;;4.93;;
52946;SDS011;68773;40.400;17.260;2023-06-14T11:23:36;10.70;;;5.43;;
52946;SDS011;68773;40.400;17.260;2023-06-14T11:26:02;14.27;;;5.25;;
52946;SDS011;68773;40.400;17.260;2023-06-14T11:28:38;12.68;;;5.38;;
52946;SDS011;68773;40.400;17.260;2023-06-14T11:31:05;7.63;;;5.35;;
52946;SDS011;68773;40.400;17.260;2023-06-14T11:33:31;9.00;;;5.35;;
52946;SDS011;68773;40.400;17.260;2023-06-14T11:35:57;9.52;;;5.75;;
52946;SDS011;68773;40.400;17.260;2023-06-14T11:38:25;11.90;;;5.78;;
52946;SDS011;68773;40.400;17.260;2023-06-14T11:40:51;8.60;;;5.93;;
52946;SDS011;68773;40.400;17.260;2023-06-14T11:43:17;13.98;;;5.63;;
52946;SDS011;68773;40.400;17.260;2023-06-14T11:45:43;11.27;;;5.55;;
52946;SDS011;68773;40.400;17.260;2023-06-14T11:48:13;7.63;;;5.53;;
52946;SDS011;68773;40.400;17.260;2023-06-14T11:50:40;9.55;;;5.70;;
52946;SDS011;68773;40.400;17.260;2023-06-14T11:53:06;18.65;;;6.43;;
52946;SDS011;68773;40.400;17.260;2023-06-14T11:55:36;9.55;;;5.43;;
52946;SDS011;68773;40.400;17.260;2023-06-14T11:58:03;10.45;;;6.13;;
52946;SDS011;68773;40.400;17.260;2023-06-14T12:00:29;9.05;;;5.97;;
52946;SDS011;68773;40.400;17.260;2023-06-14T12:02:56;10.32;;;5.80;;
52946;SDS011;68773;40.400;17.260;2023-06-14T12:05:22;9.13;;;6.05;;
52946;SDS011;68773;40.400;17.260;2023-06-14T12:07:49;10.63;;;5.88;;
52946;SDS011;68773;40.400;17.260;2023-06-14T12:10:15;19.70;;;6.78;;
52946;SDS011;68773;40.400;17.260;2023-06-14T12:12:42;8.25;;;5.60;;
52946;SDS011;68773;40.400;17.260;2023-06-14T12:15:09;8.98;;;5.93;;
52946;SDS011;68773;40.400;17.260;2023-06-14T12:17:38;7.18;;;5.10;;
52946;SDS011;68773;40.400;17.260;2023-06-14T12:20:11;12.50;;;5.65;;
52946;SDS011;68773;40.400;17.260;2023-06-14T12:22:51;10.80;;;5.43;;
52946;SDS011;68773;40.400;17.260;2023-06-14T12:25:28;11.00;;;5.95;;
52946;SDS011;68773;40.400;17.260;2023-06-14T12:27:56;8.35;;;5.53;;
52946;SDS011;68773;40.400;17.260;2023-06-14T12:30:22;10.27;;;5.68;;
52946;SDS011;68773;40.400;17.260;2023-06-14T12:32:48;9.43;;;5.70;;
52946;SDS011;68773;40.400;17.260;2023-06-14T12:35:16;7.25;;;5.20;;
52946;SDS011;68773;40.400;17.260;2023-06-14T12:37:44;14.20;;;5.90;;
52946;SDS011;68773;40.400;17.260;2023-06-14T12:40:10;10.10;;;5.00;;
52946;SDS011;68773;40.400;17.260;2023-06-14T12:42:37;9.45;;;4.70;;
52946;SDS011;68773;40.400;17.260;2023-06-14T12:45:03;10.43;;;4.82;;
52946;SDS011;68773;40.400;17.260;2023-06-14T12:47:29;12.02;;;4.68;;
52946;SDS011;68773;40.400;17.260;2023-06-14T12:49:55;13.75;;;4.50;;
52946;SDS011;68773;40.400;17.260;2023-06-14T12:52:21;12.27;;;4.80;;
52946;SDS011;68773;40.400;17.260;2023-06-14T12:54:47;8.60;;;4.55;;
52946;SDS011;68773;40.400;17.260;2023-06-14T12:57:14;10.52;;;4.30;;
52946;SDS011;68773;40.400;17.260;2023-06-14T12:59:40;10.82;;;4.18;;
52946;SDS011;68773;40.400;17.260;2023-06-14T13:02:12;9.55;;;4.72;;
52946;SDS011;68773;40.400;17.260;2023-06-14T13:04:38;10.55;;;4.90;;
52946;SDS011;68773;40.400;17.260;2023-06-14T13:07:05;11.00;;;4.60;;
52946;SDS011;68773;40.400;17.260;2023-06-14T13:09:31;7.45;;;4.45;;
52946;SDS011;68773;40.400;17.260;2023-06-14T13:11:57;10.38;;;5.32;;
52946;SDS011;68773;40.400;17.260;2023-06-14T13:14:23;9.35;;;5.45;;
52946;SDS011;68773;40.400;17.260;2023-06-14T13:16:50;9.82;;;4.82;;
52946;SDS011;68773;40.400;17.260;2023-06-14T13:19:16;10.00;;;4.85;;
52946;SDS011;68773;40.400;17.260;2023-06-14T13:21:42;9.65;;;4.70;;
52946;SDS011;68773;40.400;17.260;2023-06-14T13:24:08;9.73;;;4.95;;
52946;SDS011;68773;40.400;17.260;2023-06-14T13:26:34;9.57;;;4.53;;
52946;SDS011;68773;40.400;17.260;2023-06-14T13:29:00;5.80;;;4.43;;
52946;SDS011;68773;40.400;17.260;2023-06-14T13:31:26;13.05;;;5.15;;
52946;SDS011;68773;40.400;17.260;2023-06-14T13:33:52;8.38;;;4.47;;
52946;SDS011;68773;40.400;17.260;2023-06-14T13:36:18;9.80;;;4.53;;
52946;SDS011;68773;40.400;17.260;2023-06-14T13:38:44;9.27;;;4.63;;
52946;SDS011;68773;40.400;17.260;2023-06-14T13:41:11;8.38;;;4.28;;
52946;SDS011;68773;40.400;17.260;2023-06-14T13:43:37;9.65;;;4.82;;
52946;SDS011;68773;40.400;17.260;2023-06-14T13:46:03;13.70;;;5.07;;
52946;SDS011;68773;40.400;17.260;2023-06-14T13:48:29;13.85;;;4.65;;
52946;SDS011;68773;40.400;17.260;2023-06-14T13:50:55;12.75;;;4.93;;
52946;SDS011;68773;40.400;17.260;2023-06-14T13:53:22;9.52;;;4.53;;
52946;SDS011;68773;40.400;17.260;2023-06-14T13:55:48;8.55;;;4.32;;
52946;SDS011;68773;40.400;17.260;2023-06-14T13:58:14;11.90;;;4.32;;
52946;SDS011;68773;40.400;17.260;2023-06-14T14:00:40;11.38;;;5.38;;
52946;SDS011;68773;40.400;17.260;2023-06-14T14:03:06;13.15;;;4.85;;
52946;SDS011;68773;40.400;17.260;2023-06-14T14:05:34;13.38;;;5.20;;
52946;SDS011;68773;40.400;17.260;2023-06-14T14:08:00;14.93;;;5.22;;
52946;SDS011;68773;40.400;17.260;2023-06-14T14:10:27;10.95;;;4.90;;
52946;SDS011;68773;40.400;17.260;2023-06-14T14:12:53;14.20;;;4.90;;
52946;SDS011;68773;40.400;17.260;2023-06-14T14:15:20;13.95;;;4.82;;
52946;SDS011;68773;40.400;17.260;2023-06-14T14:17:46;12.38;;;5.07;;
52946;SDS011;68773;40.400;17.260;2023-06-14T14:20:15;12.65;;;5.00;;
52946;SDS011;68773;40.400;17.260;2023-06-14T14:22:42;18.10;;;5.30;;
52946;SDS011;68773;40.400;17.260;2023-06-14T14:25:08;8.32;;;4.07;;
52946;SDS011;68773;40.400;17.260;2023-06-14T14:27:35;15.60;;;4.90;;
52946;SDS011;68773;40.400;17.260;2023-06-14T14:30:05;12.25;;;4.97;;
52946;SDS011;68773;40.400;17.260;2023-06-14T14:32:31;9.55;;;4.55;;
52946;SDS011;68773;40.400;17.260;2023-06-14T14:34:57;15.80;;;4.65;;
52946;SDS011;68773;40.400;17.260;2023-06-14T14:37:24;14.85;;;4.70;;
52946;SDS011;68773;40.400;17.260;2023-06-14T14:39:53;12.35;;;3.85;;
52946;SDS011;68773;40.400;17.260;2023-06-14T14:42:19;14.90;;;4.88;;
52946;SDS011;68773;40.400;17.260;2023-06-14T14:44:45;12.80;;;5.18;;
52946;SDS011;68773;40.400;17.260;2023-06-14T14:47:11;11.93;;;4.57;;
52946;SDS011;68773;40.400;17.260;2023-06-14T14:49:37;14.30;;;4.75;;
52946;SDS011;68773;40.400;17.260;2023-06-14T14:52:03;14.35;;;4.70;;
52946;SDS011;68773;40.400;17.260;2023-06-14T14:54:30;15.27;;;4.85;;
52946;SDS011;68773;40.400;17.260;2023-06-14T14:56:56;8.65;;;4.00;;
52946;SDS011;68773;40.400;17.260;2023-06-14T14:59:22;21.73;;;5.22;;
52946;SDS011;68773;40.400;17.260;2023-06-14T15:01:48;13.38;;;4.43;;
52946;SDS011;68773;40.400;17.260;2023-06-14T15:04:14;11.52;;;4.55;;
52946;SDS011;68773;40.400;17.260;2023-06-14T15:06:40;14.18;;;5.57;;
52946;SDS011;68773;40.400;17.260;2023-06-14T15:09:06;12.85;;;4.43;;
52946;SDS011;68773;40.400;17.260;2023-06-14T15:11:32;14.02;;;4.72;;
52946;SDS011;68773;40.400;17.260;2023-06-14T15:13:58;18.08;;;4.95;;
52946;SDS011;68773;40.400;17.260;2023-06-14T15:16:25;9.43;;;4.15;;
52946;SDS011;68773;40.400;17.260;2023-06-14T15:18:51;9.27;;;4.35;;
52946;SDS011;68773;40.400;17.260;2023-06-14T15:21:17;12.85;;;4.35;;
52946;SDS011;68773;40.400;17.260;2023-06-14T15:23:45;12.25;;;4.50;;
52946;SDS011;68773;40.400;17.260;2023-06-14T15:26:11;10.85;;;4.88;;
52946;SDS011;68773;40.400;17.260;2023-06-14T15:28:37;12.68;;;4.53;;
52946;SDS011;68773;40.400;17.260;2023-06-14T15:31:04;11.70;;;5.20;;
52946;SDS011;68773;40.400;17.260;2023-06-14T15:33:30;11.20;;;4.32;;
52946;SDS011;68773;40.400;17.260;2023-06-14T15:35:56;7.25;;;4.18;;
52946;SDS011;68773;40.400;17.260;2023-06-14T15:38:22;11.82;;;4.68;;
52946;SDS011;68773;40.400;17.260;2023-06-14T15:40:49;10.38;;;4.40;;
52946;SDS011;68773;40.400;17.260;2023-06-14T15:43:15;14.48;;;4.28;;
52946;SDS011;68773;40.400;17.260;2023-06-14T15:45:41;11.70;;;4.10;;
52946;SDS011;68773;40.400;17.260;2023-06-14T15:48:08;11.18;;;4.72;;
